Time;durP1;ratioP1;P1;durP2;ratioP2;P2;SDS_P1;SDS_P2;PMS_P1;PMS_P2;Temp;Humidity;BMP_temperature;BMP_pressure;BME280_temperature;BME280_humidity;BME280_pressure;Samples;Min_cycle;Max_cycle;Signal;HPM_P1;HPM_P2
2021/05/23 00:00:59;;;;;;;4.00;1.13;;;18.30;95.60;;;;;;5034261;28;20034;-70
2021/05/23 00:03:25;;;;;;;3.05;1.08;;;18.20;95.60;;;;;;5033670;28;20031;-69
2021/05/23 00:05:51;;;;;;;4.72;1.00;;;18.30;95.60;;;;;;5034004;28;20105;-69
2021/05/23 00:08:19;;;;;;;2.50;1.08;;;18.30;95.60;;;;;;5034086;28;20105;-70
2021/05/23 00:10:47;;;;;;;2.53;1.13;;;18.30;95.60;;;;;;5033157;28;20029;-70
2021/05/23 00:13:15;;;;;;;3.08;1.10;;;18.30;95.60;;;;;;5033311;28;20121;-67
2021/05/23 00:16:06;;;;;;;3.72;1.10;;;18.20;95.60;;;;;;5033598;28;20748;-69
2021/05/23 00:18:35;;;;;;;3.30;0.98;;;18.30;95.60;;;;;;5033848;28;20041;-68
2021/05/23 00:21:02;;;;;;;3.90;1.00;;;18.20;95.60;;;;;;5033938;28;20078;-70
2021/05/23 00:23:27;;;;;;;1.73;0.90;;;18.20;95.70;;;;;;5032931;28;20366;-69
2021/05/23 00:25:53;;;;;;;2.75;0.80;;;18.20;95.70;;;;;;5033056;28;20033;-72
2021/05/23 00:28:20;;;;;;;2.63;1.00;;;18.20;95.70;;;;;;5033263;28;20025;-69
2021/05/23 00:30:46;;;;;;;2.58;0.75;;;18.20;95.70;;;;;;5033418;28;20119;-69
2021/05/23 00:33:12;;;;;;;3.40;1.00;;;18.20;95.70;;;;;;5033181;28;20065;-69
2021/05/23 00:35:38;;;;;;;3.35;1.00;;;18.20;95.70;;;;;;5033480;28;20061;-66
2021/05/23 00:38:05;;;;;;;3.00;1.02;;;18.20;95.70;;;;;;5033611;28;20017;-66
2021/05/23 00:40:32;;;;;;;3.75;0.98;;;18.20;95.70;;;;;;5033425;28;20037;-71
2021/05/23 00:42:59;;;;;;;1.90;0.73;;;18.30;96.20;;;;;;5032712;28;20036;-66
2021/05/23 00:45:25;;;;;;;2.85;0.90;;;18.30;95.70;;;;;;5032897;28;20041;-65
2021/05/23 00:47:50;;;;;;;4.05;1.15;;;18.20;95.80;;;;;;5032803;28;20039;-65
2021/05/23 00:50:24;;;;;;;4.22;0.85;;;18.30;95.80;;;;;;5032805;28;20544;-65
2021/05/23 00:52:51;;;;;;;3.20;0.88;;;18.30;95.70;;;;;;5033149;28;20030;-65
2021/05/23 00:55:19;;;;;;;4.57;1.13;;;18.20;95.70;;;;;;5032735;28;20389;-64
2021/05/23 00:57:44;;;;;;;4.75;1.10;;;18.20;95.80;;;;;;5032781;28;20421;-65
2021/05/23 01:00:10;;;;;;;4.65;1.17;;;18.20;95.80;;;;;;5032835;28;20091;-66
2021/05/23 01:02:48;;;;;;;4.47;1.08;;;18.20;95.80;;;;;;5032965;28;20017;-65
2021/05/23 01:05:20;;;;;;;1.67;0.82;;;18.20;95.90;;;;;;5032603;28;20036;-64
2021/05/23 01:07:46;;;;;;;3.58;1.00;;;18.20;95.80;;;;;;5032583;28;20025;-63
2021/05/23 01:10:21;;;;;;;4.20;1.00;;;18.20;95.80;;;;;;5032995;28;20022;-68
2021/05/23 01:12:53;;;;;;;3.55;0.70;;;18.20;96.00;;;;;;5033005;28;20477;-68
2021/05/23 01:15:29;;;;;;;2.47;0.75;;;18.30;96.00;;;;;;5032797;28;20095;-69
2021/05/23 01:17:57;;;;;;;4.20;0.85;;;18.30;96.30;;;;;;5032985;28;20113;-69
2021/05/23 01:20:53;;;;;;;2.47;0.90;;;18.30;96.00;;;;;;5032361;28;20065;-69
2021/05/23 01:23:19;;;;;;;4.65;0.90;;;18.30;96.10;;;;;;5032224;28;20115;-68
2021/05/23 01:25:47;;;;;;;2.72;0.88;;;18.30;96.10;;;;;;5031997;28;20531;-68
2021/05/23 01:28:17;;;;;;;3.15;1.05;;;18.30;96.10;;;;;;5032456;28;20021;-69
2021/05/23 01:30:46;;;;;;;2.33;0.80;;;18.30;96.20;;;;;;5032298;28;20120;-69
2021/05/23 01:33:14;;;;;;;4.55;1.13;;;18.20;96.20;;;;;;5032131;28;20055;-69
2021/05/23 01:35:42;;;;;;;3.45;1.02;;;18.30;96.20;;;;;;5032182;28;20064;-68
2021/05/23 01:38:16;;;;;;;5.30;1.10;;;18.30;96.20;;;;;;5031304;28;20032;-71
2021/05/23 01:40:42;;;;;;;;;;;18.20;96.30;;;;;;5032622;28;20044;-69
2021/05/23 01:43:09;;;;;;;3.95;1.00;;;18.20;96.20;;;;;;5033670;28;19909;-68
2021/05/23 01:45:36;;;;;;;2.50;0.90;;;18.20;96.30;;;;;;5031102;28;20029;-69
2021/05/23 01:48:04;;;;;;;2.58;1.00;;;18.20;96.20;;;;;;5032215;28;20424;-68
2021/05/23 01:50:31;;;;;;;4.00;1.17;;;18.30;96.30;;;;;;5031900;28;20488;-69
2021/05/23 01:53:00;;;;;;;1.88;0.98;;;18.30;96.30;;;;;;5032170;28;20044;-69
2021/05/23 01:55:27;;;;;;;2.25;0.82;;;18.20;96.60;;;;;;5031809;28;20021;-70
2021/05/23 01:57:53;;;;;;;1.70;0.93;;;18.20;96.30;;;;;;5032134;28;20105;-70
2021/05/23 02:00:26;;;;;;;5.20;1.10;;;18.20;96.30;;;;;;5032014;28;20140;-68
2021/05/23 02:02:52;;;;;;;2.67;1.03;;;18.20;96.40;;;;;;5032203;28;20026;-69
2021/05/23 02:05:18;;;;;;;2.20;1.10;;;18.20;96.40;;;;;;5031634;28;20284;-70
2021/05/23 02:07:44;;;;;;;2.90;0.85;;;18.20;96.40;;;;;;5032332;28;20101;-70
2021/05/23 02:10:14;;;;;;;3.72;1.20;;;18.20;96.70;;;;;;5032044;28;20377;-69
2021/05/23 02:12:41;;;;;;;1.98;0.95;;;18.20;96.40;;;;;;5031807;28;20378;-69
2021/05/23 02:15:09;;;;;;;2.25;0.80;;;18.20;96.40;;;;;;5032094;28;20052;-69
2021/05/23 02:17:39;;;;;;;1.70;0.88;;;18.20;96.40;;;;;;5031889;28;20044;-69
2021/05/23 02:20:07;;;;;;;3.92;1.17;;;18.20;96.40;;;;;;5031833;28;20029;-69
2021/05/23 02:22:41;;;;;;;2.15;0.90;;;18.20;96.40;;;;;;5030912;28;20022;-69
2021/05/23 02:25:08;;;;;;;1.83;0.70;;;18.20;96.50;;;;;;5031443;28;20380;-68
2021/05/23 02:27:42;;;;;;;2.03;0.85;;;18.20;96.50;;;;;;5031210;28;20378;-68
2021/05/23 02:30:13;;;;;;;2.13;0.80;;;18.20;96.50;;;;;;5032246;28;20021;-67
2021/05/23 02:32:39;;;;;;;1.38;0.80;;;18.20;96.60;;;;;;5031302;28;20481;-67
2021/05/23 02:35:05;;;;;;;1.48;0.90;;;18.20;96.60;;;;;;5031414;28;20034;-67
2021/05/23 02:37:31;;;;;;;2.30;0.80;;;18.20;96.60;;;;;;5031240;28;20056;-69
2021/05/23 02:39:57;;;;;;;3.15;1.00;;;18.20;96.60;;;;;;5031590;28;20038;-70
2021/05/23 02:42:22;;;;;;;3.33;1.08;;;18.20;96.60;;;;;;5031440;28;20013;-70
2021/05/23 02:44:48;;;;;;;2.17;0.80;;;18.20;96.60;;;;;;5031138;28;20080;-65
2021/05/23 02:47:13;;;;;;;1.80;0.95;;;18.20;96.50;;;;;;5031304;28;20033;-65
2021/05/23 02:49:43;;;;;;;2.58;1.00;;;18.10;96.50;;;;;;5031467;28;20033;-64
2021/05/23 02:52:11;;;;;;;3.53;0.90;;;18.10;96.50;;;;;;5031641;28;20029;-67
2021/05/23 02:54:37;;;;;;;2.05;1.02;;;18.10;96.60;;;;;;5030388;28;20029;-66
2021/05/23 02:57:04;;;;;;;2.85;1.20;;;18.10;96.60;;;;;;5031164;28;20026;-67
2021/05/23 02:59:30;;;;;;;1.92;0.93;;;18.10;96.60;;;;;;5031225;28;20038;-66
2021/05/23 03:01:56;;;;;;;2.50;0.85;;;18.10;96.60;;;;;;5031326;28;20074;-67
2021/05/23 03:04:22;;;;;;;1.58;0.75;;;18.10;96.60;;;;;;5030793;28;20060;-66
2021/05/23 03:06:48;;;;;;;2.17;0.90;;;18.10;96.60;;;;;;5033715;28;20021;-64
2021/05/23 03:09:14;;;;;;;1.85;0.85;;;18.10;96.60;;;;;;5035113;28;20497;-67
2021/05/23 03:11:40;;;;;;;2.10;0.75;;;18.10;96.70;;;;;;5035039;28;20113;-65
2021/05/23 03:14:06;;;;;;;3.78;1.33;;;18.10;96.70;;;;;;5034426;28;20104;-66
2021/05/23 03:16:31;;;;;;;1.65;0.82;;;18.10;96.70;;;;;;5034685;28;20036;-64
2021/05/23 03:18:57;;;;;;;0.93;0.65;;;18.10;96.60;;;;;;5034813;28;20099;-65
2021/05/23 03:21:22;;;;;;;1.75;0.90;;;18.10;96.60;;;;;;5034266;28;20116;-65
2021/05/23 03:23:48;;;;;;;2.58;0.90;;;18.10;96.60;;;;;;5033749;28;20029;-64
2021/05/23 03:26:14;;;;;;;1.92;0.88;;;18.10;96.70;;;;;;5034503;28;20060;-64
2021/05/23 03:28:39;;;;;;;1.83;0.77;;;18.10;97.00;;;;;;5034816;28;20384;-64
2021/05/23 03:31:05;;;;;;;2.15;0.90;;;18.00;96.60;;;;;;5034713;28;20028;-70
2021/05/23 03:33:30;;;;;;;1.70;0.90;;;18.00;96.60;;;;;;5034206;28;20029;-70
2021/05/23 03:35:56;;;;;;;1.77;0.90;;;18.00;96.60;;;;;;5034899;28;20511;-71
2021/05/23 03:38:21;;;;;;;1.83;0.80;;;18.00;96.60;;;;;;5034362;28;20108;-70
2021/05/23 03:40:47;;;;;;;1.02;0.70;;;18.00;96.60;;;;;;5034423;28;20072;-71
2021/05/23 03:43:13;;;;;;;0.80;0.70;;;18.00;96.60;;;;;;5034691;28;20025;-68
2021/05/23 03:45:38;;;;;;;3.17;0.90;;;18.00;96.70;;;;;;5034602;28;20049;-69
2021/05/23 03:48:05;;;;;;;2.63;0.95;;;18.00;97.00;;;;;;5034511;28;20105;-69
2021/05/23 03:50:31;;;;;;;1.85;1.00;;;18.00;96.70;;;;;;5034265;28;20033;-69
2021/05/23 03:52:57;;;;;;;1.40;0.90;;;18.00;96.70;;;;;;5033853;28;20037;-69
2021/05/23 03:55:24;;;;;;;1.77;0.77;;;18.00;96.70;;;;;;5033425;28;20585;-69
2021/05/23 03:57:51;;;;;;;1.42;0.88;;;18.00;96.70;;;;;;5034636;28;20112;-69
2021/05/23 04:00:19;;;;;;;1.67;0.77;;;18.00;96.70;;;;;;5033979;28;20037;-71
2021/05/23 04:02:48;;;;;;;2.00;1.00;;;18.00;96.80;;;;;;5033839;28;20033;-69
2021/05/23 04:05:15;;;;;;;2.65;1.00;;;18.00;96.70;;;;;;5033943;28;20037;-68
2021/05/23 04:07:41;;;;;;;1.90;0.80;;;18.00;96.80;;;;;;5034278;28;20382;-70
2021/05/23 04:10:08;;;;;;;1.83;0.90;;;18.00;96.70;;;;;;5034134;28;20397;-70
2021/05/23 04:12:42;;;;;;;2.40;0.98;;;18.00;96.80;;;;;;5033634;28;20473;-69
2021/05/23 04:15:09;;;;;;;2.35;0.80;;;18.00;96.80;;;;;;5034075;28;20030;-68
2021/05/23 04:17:35;;;;;;;1.75;0.73;;;18.10;96.80;;;;;;5032244;28;20021;-68
2021/05/23 04:20:02;;;;;;;2.33;0.98;;;18.00;96.80;;;;;;5033656;28;20036;-68
2021/05/23 04:22:28;;;;;;;2.08;0.80;;;18.10;96.70;;;;;;5033656;28;20087;-68
2021/05/23 04:24:54;;;;;;;2.08;0.80;;;18.10;96.70;;;;;;5033727;28;20021;-68
2021/05/23 04:27:19;;;;;;;2.15;1.10;;;18.10;96.60;;;;;;5034170;28;20342;-69
2021/05/23 04:29:45;;;;;;;2.38;1.05;;;18.20;96.60;;;;;;5033761;28;20466;-69
2021/05/23 04:32:11;;;;;;;1.52;0.68;;;18.20;96.30;;;;;;5034200;28;20489;-69
2021/05/23 04:34:37;;;;;;;2.55;0.95;;;18.30;96.30;;;;;;5033345;28;20431;-68
2021/05/23 04:37:06;;;;;;;3.10;0.88;;;18.30;96.20;;;;;;5033933;28;20024;-69
2021/05/23 04:39:33;;;;;;;2.15;0.82;;;18.40;96.20;;;;;;5033681;28;20033;-69
2021/05/23 04:41:58;;;;;;;3.42;1.00;;;18.50;96.00;;;;;;5033735;28;20018;-70
2021/05/23 04:44:24;;;;;;;2.25;0.90;;;18.50;95.90;;;;;;5032771;28;20036;-71
2021/05/23 04:46:50;;;;;;;2.15;1.02;;;18.60;95.80;;;;;;5033471;28;20030;-73
2021/05/23 04:49:16;;;;;;;1.83;0.77;;;18.60;95.80;;;;;;5033725;28;20444;-73
2021/05/23 04:51:41;;;;;;;3.08;1.10;;;18.60;95.80;;;;;;5033113;28;20171;-73
2021/05/23 04:54:07;;;;;;;2.10;0.90;;;18.70;95.70;;;;;;5032907;28;20080;-71
2021/05/23 04:56:33;;;;;;;2.67;1.00;;;18.70;95.70;;;;;;5032838;28;20037;-70
2021/05/23 04:58:59;;;;;;;1.70;0.75;;;18.70;95.60;;;;;;5032805;28;20037;-70
2021/05/23 05:01:25;;;;;;;1.52;0.80;;;18.70;95.50;;;;;;5032230;28;20410;-71
2021/05/23 05:03:50;;;;;;;2.45;0.88;;;18.80;95.50;;;;;;5032698;28;20176;-70
2021/05/23 05:06:16;;;;;;;1.35;0.63;;;18.80;95.40;;;;;;5032789;28;20028;-69
2021/05/23 05:08:41;;;;;;;1.60;0.90;;;18.80;95.40;;;;;;5032858;28;20056;-69
2021/05/23 05:11:07;;;;;;;1.75;0.80;;;18.90;95.30;;;;;;5033008;28;20080;-70
2021/05/23 05:13:33;;;;;;;3.05;0.95;;;18.90;95.20;;;;;;5032608;28;20108;-69
2021/05/23 05:15:58;;;;;;;2.05;0.90;;;18.90;95.30;;;;;;5033007;28;20100;-69
2021/05/23 05:18:24;;;;;;;4.93;0.90;;;18.90;95.10;;;;;;5032459;28;20017;-68
2021/05/23 05:20:50;;;;;;;2.17;1.10;;;19.00;95.20;;;;;;5032552;28;20036;-67
2021/05/23 05:23:15;;;;;;;3.20;1.15;;;19.00;95.10;;;;;;5032456;28;20032;-68
2021/05/23 05:25:41;;;;;;;2.58;0.70;;;19.00;95.10;;;;;;5031832;28;20034;-67
2021/05/23 05:28:07;;;;;;;2.08;1.00;;;18.90;95.10;;;;;;5032417;28;20030;-66
2021/05/23 05:30:32;;;;;;;2.33;0.80;;;18.90;95.50;;;;;;5031971;28;20076;-67
2021/05/23 05:32:58;;;;;;;1.10;0.60;;;18.90;95.30;;;;;;5032151;28;20079;-68
2021/05/23 05:35:24;;;;;;;1.90;0.80;;;18.90;95.20;;;;;;5031975;28;20112;-67
2021/05/23 05:37:49;;;;;;;1.90;0.95;;;18.90;95.40;;;;;;5032343;28;20029;-66
2021/05/23 05:40:15;;;;;;;2.25;0.90;;;18.90;95.40;;;;;;5032100;28;20033;-67
2021/05/23 05:42:41;;;;;;;2.00;0.85;;;18.90;95.30;;;;;;5032396;28;20033;-67
2021/05/23 05:45:07;;;;;;;2.03;0.80;;;18.90;95.40;;;;;;5031632;28;20040;-65
2021/05/23 05:47:33;;;;;;;2.50;0.80;;;18.90;95.30;;;;;;5031899;28;20017;-65
2021/05/23 05:49:59;;;;;;;2.38;0.88;;;19.00;95.20;;;;;;5032438;28;20040;-67
2021/05/23 05:52:24;;;;;;;2.67;1.00;;;19.00;95.20;;;;;;5032130;28;20034;-71
2021/05/23 05:54:50;;;;;;;2.15;0.90;;;19.10;95.00;;;;;;5031695;28;20041;-72
2021/05/23 05:57:16;;;;;;;2.15;0.80;;;19.20;95.00;;;;;;5032529;28;20100;-71
2021/05/23 05:59:41;;;;;;;1.98;0.60;;;19.20;94.50;;;;;;5032941;28;20539;-70
2021/05/23 06:02:07;;;;;;;1.85;0.88;;;19.20;95.00;;;;;;5032317;28;20495;-72
2021/05/23 06:04:33;;;;;;;1.73;1.05;;;19.10;95.00;;;;;;5030873;28;20030;-72
2021/05/23 06:06:59;;;;;;;2.35;0.80;;;19.10;95.10;;;;;;5032190;28;20091;-72
2021/05/23 06:09:24;;;;;;;3.03;1.10;;;19.10;94.90;;;;;;5032300;28;20473;-72
2021/05/23 06:11:50;;;;;;;2.95;0.80;;;19.10;94.90;;;;;;5032179;28;20017;-73
2021/05/23 06:14:16;;;;;;;3.13;0.88;;;19.10;94.80;;;;;;5031796;28;20028;-72
2021/05/23 06:16:42;;;;;;;3.22;0.85;;;19.20;94.70;;;;;;5032472;28;20385;-73
2021/05/23 06:19:07;;;;;;;2.25;0.70;;;19.20;94.60;;;;;;5032021;28;20029;-71
2021/05/23 06:21:33;;;;;;;2.33;0.90;;;19.20;94.50;;;;;;5032300;28;20496;-72
2021/05/23 06:23:59;;;;;;;1.95;0.73;;;19.20;94.40;;;;;;5032088;28;20698;-73
2021/05/23 06:26:26;;;;;;;1.90;0.70;;;19.20;94.50;;;;;;5031883;28;20056;-68
2021/05/23 06:28:54;;;;;;;1.52;0.80;;;19.30;94.70;;;;;;5032061;28;20025;-70
2021/05/23 06:31:23;;;;;;;2.33;0.88;;;19.40;94.60;;;;;;5031316;28;20024;-73
2021/05/23 06:33:49;;;;;;;3.80;1.10;;;19.50;94.70;;;;;;5031767;28;20507;-70
2021/05/23 06:36:15;;;;;;;3.25;1.13;;;19.40;92.20;;;;;;5032075;28;20061;-70
2021/05/23 06:38:41;;;;;;;5.07;1.10;;;19.20;92.90;;;;;;5031670;28;20142;-69
2021/05/23 06:41:06;;;;;;;3.13;1.05;;;19.20;93.30;;;;;;5033509;28;20673;-73
2021/05/23 06:43:32;;;;;;;2.83;0.90;;;19.30;93.40;;;;;;5034562;28;20033;-72
2021/05/23 06:45:58;;;;;;;1.98;0.98;;;19.30;93.60;;;;;;5034978;28;20033;-69
2021/05/23 06:48:23;;;;;;;3.40;1.00;;;19.40;93.80;;;;;;5034362;28;20022;-71
2021/05/23 06:50:51;;;;;;;2.80;0.80;;;19.50;93.80;;;;;;5034893;28;20029;-72
2021/05/23 06:53:17;;;;;;;10.15;1.30;;;19.60;93.90;;;;;;5034520;28;20029;-71
2021/05/23 06:55:42;;;;;;;10.98;1.70;;;19.70;92.50;;;;;;5034780;28;20359;-72
2021/05/23 06:58:08;;;;;;;11.57;1.20;;;19.30;92.40;;;;;;5036029;28;20033;-68
2021/05/23 07:00:34;;;;;;;5.63;1.50;;;19.50;92.30;;;;;;5034648;28;20044;-71
2021/05/23 07:02:59;;;;;;;6.18;1.42;;;19.50;91.70;;;;;;5034983;28;20479;-72
2021/05/23 07:05:25;;;;;;;9.75;2.00;;;19.40;91.70;;;;;;5032242;28;20111;-65
2021/05/23 07:07:51;;;;;;;8.32;1.77;;;19.50;90.70;;;;;;5029246;28;20385;-71
2021/05/23 07:10:16;;;;;;;10.05;1.75;;;19.40;90.50;;;;;;5034915;28;20469;-67
2021/05/23 07:12:42;;;;;;;6.97;1.65;;;19.50;90.20;;;;;;5033937;28;20370;-66
2021/05/23 07:15:09;;;;;;;7.97;1.70;;;19.30;89.60;;;;;;5034871;28;20453;-72
2021/05/23 07:17:35;;;;;;;9.18;1.92;;;19.00;89.00;;;;;;5034314;28;20036;-69
2021/05/23 07:20:00;;;;;;;10.68;1.80;;;18.50;89.30;;;;;;5034578;28;20026;-70
2021/05/23 07:22:26;;;;;;;9.60;1.90;;;18.00;90.10;;;;;;5033658;28;20021;-70
2021/05/23 07:24:52;;;;;;;4.40;1.35;;;17.90;90.40;;;;;;5034284;28;20021;-71
2021/05/23 07:27:18;;;;;;;8.35;1.77;;;17.90;90.40;;;;;;5034129;28;20029;-67
2021/05/23 07:29:43;;;;;;;7.10;1.25;;;17.90;90.40;;;;;;5034551;28;20017;-68
2021/05/23 07:32:09;;;;;;;7.05;1.65;;;18.00;90.50;;;;;;5034060;28;20111;-69
2021/05/23 07:34:35;;;;;;;7.03;1.30;;;17.90;90.50;;;;;;5034313;28;20021;-68
2021/05/23 07:37:01;;;;;;;5.47;1.40;;;17.80;90.70;;;;;;5034385;28;20029;-65
2021/05/23 07:39:26;;;;;;;7.50;1.70;;;17.90;90.60;;;;;;5033961;28;20037;-67
2021/05/23 07:41:52;;;;;;;8.30;1.90;;;17.90;90.40;;;;;;5033086;28;20021;-68
2021/05/23 07:44:18;;;;;;;10.27;1.60;;;17.50;91.00;;;;;;5033766;28;20401;-67
2021/05/23 07:46:44;;;;;;;5.20;1.30;;;17.40;91.30;;;;;;5033964;28;20128;-67
2021/05/23 07:49:10;;;;;;;7.00;1.50;;;17.50;91.50;;;;;;5034265;28;20033;-68
2021/05/23 07:51:36;;;;;;;6.57;1.30;;;17.70;91.30;;;;;;5033640;28;20527;-66
2021/05/23 07:54:03;;;;;;;4.72;1.23;;;17.70;91.10;;;;;;5033737;28;20087;-66
2021/05/23 07:56:28;;;;;;;5.55;1.33;;;17.70;91.30;;;;;;5033807;28;20020;-67
2021/05/23 07:58:54;;;;;;;4.63;1.40;;;17.50;91.30;;;;;;5033777;28;20021;-65
2021/05/23 08:01:20;;;;;;;5.75;1.20;;;17.70;91.60;;;;;;5033803;28;20477;-64
2021/05/23 08:03:46;;;;;;;7.15;1.42;;;17.80;91.30;;;;;;5033949;28;20025;-69
2021/05/23 08:06:13;;;;;;;6.10;1.50;;;17.90;91.00;;;;;;5033237;28;20030;-72
2021/05/23 08:08:39;;;;;;;7.50;1.60;;;17.70;91.20;;;;;;5033305;28;20025;-71
2021/05/23 08:11:04;;;;;;;6.10;1.50;;;17.80;90.80;;;;;;5033559;28;20033;-73
2021/05/23 08:13:30;;;;;;;5.70;1.45;;;17.80;91.20;;;;;;5033451;28;20022;-72
2021/05/23 08:15:58;;;;;;;7.40;1.55;;;17.90;91.10;;;;;;5033655;28;20488;-71
2021/05/23 08:18:29;;;;;;;5.57;1.20;;;17.90;91.40;;;;;;5033434;28;20030;-72
2021/05/23 08:21:00;;;;;;;5.30;1.50;;;18.00;91.30;;;;;;5033358;28;20407;-70
2021/05/23 08:23:27;;;;;;;8.30;1.30;;;18.00;91.30;;;;;;5032746;28;20166;-67
2021/05/23 08:25:53;;;;;;;4.30;0.80;;;18.10;91.30;;;;;;5030787;28;20025;-68
2021/05/23 08:28:19;;;;;;;4.43;0.90;;;18.30;91.40;;;;;;5032575;28;20022;-68
2021/05/23 08:30:45;;;;;;;3.13;1.00;;;18.40;91.50;;;;;;5033175;28;20037;-66
2021/05/23 08:33:12;;;;;;;4.18;0.95;;;18.50;91.40;;;;;;5033082;28;20025;-69
2021/05/23 08:35:38;;;;;;;4.38;1.10;;;18.50;91.50;;;;;;5032394;28;20111;-68
2021/05/23 08:38:04;;;;;;;5.13;1.15;;;18.60;91.50;;;;;;5032344;28;20033;-68
2021/05/23 08:40:29;;;;;;;2.45;0.82;;;18.60;91.40;;;;;;5032205;28;20044;-68
2021/05/23 08:42:55;;;;;;;3.58;1.08;;;18.70;91.50;;;;;;5033004;28;20534;-67
2021/05/23 08:45:21;;;;;;;3.53;0.90;;;18.70;91.40;;;;;;5032979;28;20519;-67
2021/05/23 08:47:47;;;;;;;4.20;1.10;;;18.80;91.40;;;;;;5033302;28;20033;-68
2021/05/23 08:50:17;;;;;;;3.75;0.82;;;18.80;91.40;;;;;;5032946;28;20084;-67
2021/05/23 08:52:43;;;;;;;3.47;0.73;;;18.80;91.50;;;;;;5032822;28;20026;-68
2021/05/23 08:55:09;;;;;;;5.18;1.20;;;18.90;91.50;;;;;;5032793;28;20038;-68
2021/05/23 08:57:35;;;;;;;3.85;0.80;;;18.90;91.40;;;;;;5032110;28;20473;-68
2021/05/23 09:00:03;;;;;;;2.25;0.80;;;18.90;91.40;;;;;;5032913;28;20067;-68
2021/05/23 09:02:29;;;;;;;2.80;0.90;;;18.90;91.50;;;;;;5031743;28;20053;-67
2021/05/23 09:04:55;;;;;;;5.57;1.25;;;18.90;91.50;;;;;;5031832;28;20075;-67
2021/05/23 09:07:21;;;;;;;3.65;0.82;;;18.90;91.60;;;;;;5023967;28;20491;-68
2021/05/23 09:09:48;;;;;;;3.28;0.80;;;18.90;91.90;;;;;;5032568;28;20035;-67
2021/05/23 09:12:17;;;;;;;2.58;0.90;;;18.90;91.60;;;;;;5032592;28;20018;-67
2021/05/23 09:14:45;;;;;;;3.75;1.02;;;18.90;91.70;;;;;;5032137;28;20048;-67
2021/05/23 09:17:27;;;;;;;5.32;0.85;;;19.00;91.60;;;;;;5032460;28;20504;-68
2021/05/23 09:19:55;;;;;;;3.08;0.73;;;19.00;91.50;;;;;;5032294;28;20052;-68
2021/05/23 09:22:26;;;;;;;4.05;0.93;;;19.10;91.60;;;;;;5032146;28;20076;-68
2021/05/23 09:25:11;;;;;;;3.92;0.70;;;19.10;91.60;;;;;;5031616;28;20084;-68
2021/05/23 09:27:43;;;;;;;3.13;0.80;;;19.10;91.60;;;;;;5032141;28;20068;-68
2021/05/23 09:30:17;;;;;;;4.90;1.10;;;19.10;91.60;;;;;;5031331;28;20038;-66
2021/05/23 09:32:45;;;;;;;3.95;1.23;;;19.20;91.80;;;;;;5032132;28;20029;-67
2021/05/23 09:35:11;;;;;;;7.60;1.10;;;19.20;91.00;;;;;;5032499;28;20064;-72
2021/05/23 09:37:38;;;;;;;9.02;1.23;;;19.10;91.30;;;;;;5032381;28;20079;-67
2021/05/23 09:40:16;;;;;;;6.03;1.38;;;19.20;91.50;;;;;;5032245;28;20076;-63
2021/05/23 09:42:46;;;;;;;3.80;0.90;;;19.10;89.60;;;;;;5031012;28;20025;-63
2021/05/23 09:45:13;;;;;;;3.35;1.23;;;18.90;90.00;;;;;;5044172;28;20033;-64
2021/05/23 09:47:58;;;;;;;4.03;0.73;;;19.00;90.90;;;;;;5027423;28;20041;-63
2021/05/23 09:50:35;;;;;;;4.82;0.90;;;19.20;90.90;;;;;;5031807;28;20029;-63
2021/05/23 09:53:01;;;;;;;4.00;1.20;;;19.20;90.80;;;;;;5032168;28;20362;-64
2021/05/23 09:55:27;;;;;;;3.35;0.80;;;19.20;90.90;;;;;;5031767;28;20033;-64
2021/05/23 09:57:53;;;;;;;4.88;1.10;;;19.20;90.90;;;;;;5031638;28;20079;-63
2021/05/23 10:00:19;;;;;;;3.60;1.00;;;19.20;90.90;;;;;;5031336;28;20045;-66
2021/05/23 10:02:58;;;;;;;3.00;1.15;;;19.20;90.90;;;;;;5031920;28;20026;-64
2021/05/23 10:05:25;;;;;;;3.33;0.82;;;19.30;90.90;;;;;;5031457;28;20025;-66
2021/05/23 10:07:51;;;;;;;4.65;1.05;;;19.20;90.80;;;;;;5031612;28;20021;-65
2021/05/23 10:10:17;;;;;;;2.97;0.80;;;19.20;90.60;;;;;;5031879;28;20021;-63
2021/05/23 10:12:43;;;;;;;4.18;1.30;;;19.20;90.30;;;;;;5031232;28;20111;-64
2021/05/23 10:15:10;;;;;;;2.78;0.50;;;19.20;90.40;;;;;;5031871;28;20067;-64
2021/05/23 10:17:40;;;;;;;2.63;0.68;;;19.20;90.40;;;;;;5031345;28;20101;-65
2021/05/23 10:20:10;;;;;;;2.38;0.80;;;19.30;90.50;;;;;;5031421;28;20034;-64
2021/05/23 10:22:38;;;;;;;3.25;0.98;;;19.30;90.90;;;;;;5031142;28;20389;-63
2021/05/23 10:25:08;;;;;;;2.33;0.70;;;19.30;90.50;;;;;;5030879;28;20385;-65
2021/05/23 10:27:37;;;;;;;2.53;0.80;;;19.40;90.50;;;;;;5031223;28;20469;-63
2021/05/23 10:30:06;;;;;;;3.22;0.80;;;19.40;90.60;;;;;;5031603;28;20057;-62
2021/05/23 10:32:34;;;;;;;2.95;0.82;;;19.30;90.60;;;;;;5031589;28;20018;-62
2021/05/23 10:35:16;;;;;;;1.20;0.60;;;19.30;90.70;;;;;;5031651;28;20485;-62
2021/05/23 10:37:44;;;;;;;2.38;0.88;;;19.20;90.80;;;;;;5030859;28;20484;-62
2021/05/23 10:40:28;;;;;;;2.45;0.73;;;19.20;90.80;;;;;;5031433;28;20048;-62
2021/05/23 10:42:58;;;;;;;;;;;19.20;90.80;;;;;;5031807;28;20049;-63
2021/05/23 10:45:32;;;;;;;3.20;0.80;;;19.20;90.80;;;;;;5031579;28;19955;-62
2021/05/23 10:48:11;;;;;;;3.55;0.90;;;19.20;90.90;;;;;;5031539;28;20100;-62
2021/05/23 10:50:38;;;;;;;3.67;0.90;;;19.20;90.90;;;;;;5030751;28;20092;-62
2021/05/23 10:53:04;;;;;;;2.17;0.80;;;19.20;90.90;;;;;;5031237;28;20079;-62
2021/05/23 10:55:30;;;;;;;2.58;0.80;;;19.20;90.90;;;;;;5030777;28;20025;-62
2021/05/23 10:57:57;;;;;;;3.13;1.00;;;19.20;90.90;;;;;;5030822;28;20113;-62
2021/05/23 11:00:33;;;;;;;3.30;0.70;;;19.20;90.90;;;;;;5030991;28;20033;-62
2021/05/23 11:03:12;;;;;;;2.28;0.70;;;19.20;91.00;;;;;;5031285;28;20064;-62
2021/05/23 11:05:38;;;;;;;2.63;0.65;;;19.20;91.00;;;;;;5031249;28;20163;-66
2021/05/23 11:08:07;;;;;;;1.80;0.80;;;19.20;91.10;;;;;;5031727;28;20517;-64
2021/05/23 11:10:42;;;;;;;2.22;0.80;;;19.20;91.10;;;;;;5031215;28;20022;-63
2021/05/23 11:13:10;;;;;;;4.43;0.88;;;19.20;91.00;;;;;;5029825;28;20033;-63
2021/05/23 11:15:46;;;;;;;1.55;0.60;;;19.20;91.00;;;;;;5030712;28;20029;-63
2021/05/23 11:18:22;;;;;;;1.33;0.70;;;19.30;91.00;;;;;;5030303;28;20021;-64
2021/05/23 11:21:00;;;;;;;2.70;0.90;;;19.30;91.00;;;;;;5030821;28;20564;-64
2021/05/23 11:23:28;;;;;;;2.83;0.90;;;19.30;90.90;;;;;;5029881;28;20031;-63
2021/05/23 11:26:06;;;;;;;3.15;0.95;;;19.30;91.30;;;;;;5029299;28;20078;-63
2021/05/23 11:28:33;;;;;;;3.42;1.02;;;19.40;91.00;;;;;;5032940;28;20025;-64
2021/05/23 11:30:59;;;;;;;2.92;0.73;;;19.30;91.00;;;;;;5033710;28;20083;-64
2021/05/23 11:33:25;;;;;;;2.45;0.90;;;19.30;91.00;;;;;;5034337;28;20025;-64
2021/05/23 11:35:53;;;;;;;3.75;0.88;;;19.30;91.00;;;;;;5034840;28;20099;-64
2021/05/23 11:38:20;;;;;;;2.47;0.80;;;19.30;91.10;;;;;;5034361;28;20438;-64
2021/05/23 11:40:46;;;;;;;3.78;1.00;;;19.30;91.10;;;;;;5034429;28;20037;-63
2021/05/23 11:43:16;;;;;;;3.17;0.90;;;19.40;91.10;;;;;;5034521;28;20040;-64
2021/05/23 11:45:53;;;;;;;5.85;1.20;;;19.40;91.00;;;;;;5033938;28;20033;-64
2021/05/23 11:48:31;;;;;;;3.75;1.00;;;19.40;91.10;;;;;;5034851;28;20033;-64
2021/05/23 11:50:57;;;;;;;2.85;1.10;;;19.40;91.10;;;;;;5034604;28;20120;-64
2021/05/23 11:53:43;;;;;;;2.42;1.10;;;19.40;91.10;;;;;;5034207;28;20116;-66
2021/05/23 11:56:16;;;;;;;4.53;1.50;;;19.50;91.00;;;;;;5033770;28;20021;-64
2021/05/23 11:58:53;;;;;;;1.85;0.90;;;19.50;91.00;;;;;;5030950;28;20469;-65
2021/05/23 12:01:55;;;;;;;2.97;1.52;;;19.50;91.00;;;;;;5034508;28;20029;-66
2021/05/23 12:04:21;;;;;;;2.05;1.10;;;19.50;91.30;;;;;;5033533;28;20113;-62
2021/05/23 12:06:53;;;;;;;4.38;1.60;;;19.50;91.00;;;;;;5034572;28;20037;-64
2021/05/23 12:09:25;;;;;;;3.83;1.50;;;19.50;91.00;;;;;;5033363;28;20376;-63
2021/05/23 12:11:56;;;;;;;4.45;1.88;;;19.60;91.00;;;;;;5033220;28;20037;-63
2021/05/23 12:14:33;;;;;;;3.50;1.70;;;19.50;91.00;;;;;;5030038;28;20041;-64
2021/05/23 12:17:03;;;;;;;6.15;2.25;;;19.50;90.90;;;;;;5030389;28;20399;-63
2021/05/23 12:19:44;;;;;;;3.75;1.50;;;19.50;91.00;;;;;;5031923;28;20026;-63
2021/05/23 12:22:11;;;;;;;4.63;1.90;;;19.50;91.00;;;;;;5033711;28;20033;-64
2021/05/23 12:24:36;;;;;;;5.30;1.90;;;19.50;91.00;;;;;;5033029;28;20030;-66
2021/05/23 12:27:02;;;;;;;5.93;1.80;;;19.50;91.00;;;;;;5033544;28;20102;-63
2021/05/23 12:29:28;;;;;;;4.53;2.22;;;19.40;91.00;;;;;;5031842;28;20026;-64
2021/05/23 12:31:53;;;;;;;5.10;1.88;;;19.40;91.10;;;;;;5032464;28;20029;-65
2021/05/23 12:34:19;;;;;;;5.25;1.77;;;19.50;91.10;;;;;;5033728;28;20021;-66
2021/05/23 12:36:45;;;;;;;3.72;2.05;;;19.50;91.10;;;;;;5033210;28;20080;-66
2021/05/23 12:39:10;;;;;;;3.88;1.83;;;19.50;91.10;;;;;;5031791;28;20574;-66
2021/05/23 12:41:46;;;;;;;3.35;1.92;;;19.40;91.10;;;;;;5033148;28;20032;-66
2021/05/23 12:44:29;;;;;;;3.70;1.77;;;19.40;91.10;;;;;;5033442;28;20040;-66
2021/05/23 12:46:55;;;;;;;3.85;1.80;;;19.40;91.10;;;;;;5033258;28;20090;-67
2021/05/23 12:49:25;;;;;;;3.55;1.75;;;19.40;91.10;;;;;;5033481;28;20025;-64
2021/05/23 12:51:54;;;;;;;4.80;1.70;;;19.50;91.20;;;;;;5033122;28;20029;-65